createdAt,value
2023-04-19T00:00:12.298Z,73.00
2023-04-19T00:02:42.805Z,73.00
2023-04-19T00:05:12.001Z,72.90
2023-04-19T00:07:40.480Z,73.00
2023-04-19T00:10:09.808Z,73.00
2023-04-19T00:12:38.072Z,73.10
2023-04-19T00:15:08.735Z,73.40
2023-04-19T00:17:36.930Z,73.40
2023-04-19T00:20:06.610Z,73.20
2023-04-19T00:22:34.850Z,73.30
2023-04-19T00:25:03.874Z,73.30
2023-04-19T00:27:32.001Z,73.40
2023-04-19T00:30:00.112Z,73.30
2023-04-19T00:32:29.719Z,73.60
2023-04-19T00:34:57.806Z,73.80
2023-04-19T00:37:25.857Z,73.70
2023-04-19T00:39:53.936Z,73.60
2023-04-19T00:42:22.169Z,73.60
2023-04-19T00:44:50.208Z,73.60
2023-04-19T00:47:18.497Z,73.60
2023-04-19T00:49:48.223Z,73.70
2023-04-19T00:52:16.497Z,73.80
2023-04-19T00:54:45.804Z,73.60
2023-04-19T00:57:13.850Z,73.70
2023-04-19T00:59:43.260Z,73.50
2023-04-19T01:02:11.574Z,73.50
2023-04-19T01:04:39.839Z,73.40
2023-04-19T01:07:10.158Z,73.40
2023-04-19T01:09:42.184Z,73.40
2023-04-19T01:12:10.274Z,73.40
2023-04-19T01:14:38.381Z,73.00
2023-04-19T01:17:07.440Z,73.00
2023-04-19T01:19:36.446Z,73.10
2023-04-19T01:22:06.498Z,72.90
2023-04-19T01:24:35.968Z,73.60
2023-04-19T01:27:04.089Z,72.90
2023-04-19T01:29:32.162Z,72.70
2023-04-19T01:32:00.221Z,72.60
2023-04-19T01:34:28.613Z,72.60
2023-04-19T01:36:56.680Z,72.60
2023-04-19T01:39:27.533Z,72.60
2023-04-19T01:41:57.037Z,72.60
2023-04-19T01:44:25.160Z,72.70
2023-04-19T01:46:53.235Z,72.70
2023-04-19T01:49:21.331Z,72.70
2023-04-19T01:51:49.420Z,72.90
2023-04-19T01:54:17.773Z,73.20
2023-04-19T01:56:45.930Z,73.30
2023-04-19T01:59:15.376Z,73.50
2023-04-19T02:01:43.492Z,73.60
2023-04-19T02:04:11.691Z,73.70
2023-04-19T02:06:39.795Z,73.90
2023-04-19T02:09:08.268Z,74.00
2023-04-19T02:11:36.353Z,74.10
2023-04-19T02:14:04.428Z,74.20
2023-04-19T02:16:36.067Z,74.20
2023-04-19T02:19:04.522Z,74.30
2023-04-19T02:21:32.931Z,74.10
2023-04-19T02:24:01.175Z,74.40
2023-04-19T02:26:29.262Z,74.40
2023-04-19T02:28:57.382Z,74.50
2023-04-19T02:31:25.560Z,74.60
2023-04-19T02:33:55.047Z,74.50
2023-04-19T02:36:23.122Z,74.90
2023-04-19T02:38:51.194Z,74.80
2023-04-19T02:41:19.530Z,74.80
2023-04-19T02:43:47.584Z,74.90
2023-04-19T02:46:15.700Z,74.90
2023-04-19T02:48:43.796Z,75.00
2023-04-19T02:51:17.827Z,75.10
2023-04-19T02:53:45.884Z,75.70
2023-04-19T02:56:13.970Z,75.30
2023-04-19T02:58:42.042Z,75.40
2023-04-19T03:01:10.967Z,75.50
2023-04-19T03:03:39.273Z,75.70
2023-04-19T03:06:07.719Z,75.80
2023-04-19T03:08:37.428Z,75.90
2023-04-19T03:11:05.613Z,76.00
2023-04-19T03:13:33.679Z,75.90
2023-04-19T03:16:03.093Z,75.90
2023-04-19T03:18:31.459Z,76.10
2023-04-19T03:20:59.747Z,76.00
2023-04-19T03:23:28.007Z,76.00
2023-04-19T03:25:57.644Z,75.80
2023-04-19T03:28:25.774Z,76.10
2023-04-19T03:30:54.127Z,75.80
2023-04-19T03:33:22.231Z,75.80
2023-04-19T03:35:50.335Z,75.90
2023-04-19T03:38:18.429Z,75.80
2023-04-19T03:40:47.137Z,75.70
2023-04-19T03:43:16.599Z,75.70
2023-04-19T03:45:44.650Z,75.90
2023-04-19T03:48:12.704Z,75.70
2023-04-19T03:50:40.754Z,75.70
2023-04-19T03:53:08.843Z,75.70
2023-04-19T03:55:36.924Z,75.70
2023-04-19T03:58:05.021Z,75.80
2023-04-19T04:00:34.469Z,75.70
2023-04-19T04:03:02.798Z,75.50
2023-04-19T04:05:31.622Z,75.30
2023-04-19T04:07:59.776Z,75.10
2023-04-19T04:10:27.940Z,75.00
2023-04-19T04:12:56.063Z,74.90
2023-04-19T04:15:24.134Z,74.70
2023-04-19T04:17:53.611Z,74.50
2023-04-19T04:20:22.141Z,74.40
2023-04-19T04:22:50.569Z,74.30
2023-04-19T04:25:20.553Z,74.00
2023-04-19T04:27:52.145Z,73.80
2023-04-19T04:30:20.235Z,73.60
2023-04-19T04:32:51.286Z,73.70
2023-04-19T04:35:20.928Z,73.30
2023-04-19T04:37:50.575Z,73.20
2023-04-19T04:40:18.770Z,73.00
2023-04-19T04:42:46.849Z,72.80
2023-04-19T04:45:18.121Z,72.60
2023-04-19T04:47:47.306Z,72.40
2023-04-19T04:50:15.531Z,72.20
2023-04-19T04:52:44.968Z,72.20
2023-04-19T04:55:13.021Z,72.00
2023-04-19T04:57:41.104Z,72.00
2023-04-19T05:00:10.867Z,71.90
2023-04-19T05:02:39.012Z,71.70
2023-04-19T05:05:07.861Z,71.90
2023-04-19T05:07:35.915Z,71.80
2023-04-19T05:10:05.816Z,71.60
2023-04-19T05:12:33.940Z,71.40
2023-04-19T05:15:01.982Z,71.20
2023-04-19T05:17:30.065Z,71.10
2023-04-19T05:19:58.140Z,71.10
2023-04-19T05:22:26.422Z,71.00
2023-04-19T05:24:55.080Z,71.80
2023-04-19T05:27:24.507Z,70.90
2023-04-19T05:29:53.626Z,70.50
2023-04-19T05:32:21.810Z,70.60
2023-04-19T05:34:49.896Z,70.50
2023-04-19T05:37:18.000Z,70.40
2023-04-19T05:39:46.060Z,70.10
2023-04-19T05:42:14.126Z,70.00
2023-04-19T05:44:43.558Z,69.80
2023-04-19T05:47:12.084Z,69.80
2023-04-19T05:49:41.383Z,69.90
2023-04-19T05:52:11.232Z,69.60
2023-04-19T05:54:39.300Z,69.60
2023-04-19T05:57:07.437Z,69.60
2023-04-19T05:59:35.532Z,69.70
2023-04-19T06:02:05.128Z,69.80
2023-04-19T06:04:33.347Z,69.70
2023-04-19T06:07:01.521Z,69.70
2023-04-19T06:09:30.143Z,69.70
2023-04-19T06:11:58.199Z,69.70
2023-04-19T06:14:28.410Z,69.70
2023-04-19T06:16:56.986Z,69.80
2023-04-19T06:19:26.860Z,69.60
2023-04-19T06:21:54.948Z,69.70
2023-04-19T06:24:23.012Z,69.80
2023-04-19T06:26:51.053Z,69.90
2023-04-19T06:29:20.405Z,70.20
2023-04-19T06:31:48.556Z,70.00
2023-04-19T06:34:17.144Z,69.80
2023-04-19T06:36:46.883Z,70.20
2023-04-19T06:39:16.054Z,70.00
2023-04-19T06:41:44.116Z,69.60
2023-04-19T06:44:13.394Z,69.30
2023-04-19T06:46:41.833Z,69.20
2023-04-19T06:49:09.897Z,69.10
2023-04-19T06:51:38.888Z,69.30
2023-04-19T06:54:08.748Z,68.90
2023-04-19T06:56:45.669Z,68.90
2023-04-19T06:59:16.541Z,68.50
2023-04-19T07:01:44.736Z,68.60
2023-04-19T07:04:14.084Z,68.50
2023-04-19T07:06:42.346Z,68.30
2023-04-19T07:09:11.795Z,68.30
2023-04-19T07:11:40.216Z,68.30
2023-04-19T07:14:08.585Z,68.50
2023-04-19T07:16:36.669Z,68.10
2023-04-19T07:19:04.745Z,67.80
2023-04-19T07:21:33.545Z,67.70
2023-04-19T07:24:01.764Z,67.40
2023-04-19T07:26:31.371Z,67.50
2023-04-19T07:28:59.805Z,67.30
2023-04-19T07:31:28.662Z,67.20
2023-04-19T07:33:56.790Z,67.20
2023-04-19T07:36:24.845Z,66.80
2023-04-19T07:38:52.915Z,66.10
2023-04-19T07:41:21.117Z,65.60
2023-04-19T07:43:50.579Z,65.60
2023-04-19T07:46:18.823Z,65.20
2023-04-19T07:48:47.278Z,65.30
2023-04-19T07:51:17.466Z,64.70
2023-04-19T07:53:47.353Z,64.80
2023-04-19T07:56:15.648Z,65.10
2023-04-19T07:58:45.114Z,65.00
2023-04-19T08:01:16.323Z,65.10
2023-04-19T08:03:44.688Z,65.50
2023-04-19T08:06:14.229Z,65.30
2023-04-19T08:08:42.385Z,65.20
2023-04-19T08:11:10.438Z,64.20
2023-04-19T08:13:39.937Z,64.00
2023-04-19T08:18:41.132Z,62.40
2023-04-19T08:21:09.232Z,62.10
2023-04-19T08:23:47.440Z,62.60
2023-04-19T08:26:16.519Z,62.50
2023-04-19T08:28:44.705Z,62.70
2023-04-19T08:31:12.768Z,61.70
2023-04-19T08:33:42.188Z,61.40
2023-04-19T08:36:10.796Z,61.70
2023-04-19T08:38:39.498Z,61.90
2023-04-19T08:41:07.561Z,61.80
2023-04-19T08:43:39.760Z,62.00
2023-04-19T08:46:09.912Z,61.80
2023-04-19T08:48:38.948Z,61.40
2023-04-19T08:51:09.530Z,61.10
2023-04-19T08:53:38.799Z,59.90
2023-04-19T08:56:17.998Z,59.90
2023-04-19T08:59:04.497Z,60.20
2023-04-19T09:01:42.926Z,58.80
2023-04-19T09:06:45.320Z,58.60
2023-04-19T09:11:49.108Z,59.00
2023-04-19T09:14:19.008Z,59.00
2023-04-19T09:16:47.498Z,59.10
2023-04-19T09:19:23.922Z,58.10
2023-04-19T09:21:55.001Z,57.80
2023-04-19T09:27:12.878Z,55.90
2023-04-19T09:29:40.986Z,56.50
2023-04-19T09:32:09.165Z,56.80
2023-04-19T09:34:37.318Z,57.20
2023-04-19T09:37:29.499Z,56.90
2023-04-19T09:40:23.403Z,56.30
2023-04-19T09:48:03.597Z,55.80
2023-04-19T09:50:33.497Z,53.70
2023-04-19T09:53:05.372Z,54.30
2023-04-19T09:55:45.121Z,53.60
2023-04-19T09:58:29.290Z,53.60
2023-04-19T10:01:13.533Z,53.00
2023-04-19T10:03:45.703Z,51.30
2023-04-19T10:06:37.359Z,52.00
2023-04-19T10:09:07.152Z,50.60
2023-04-19T10:11:38.889Z,50.30
2023-04-19T10:14:08.790Z,51.90
2023-04-19T10:16:38.464Z,50.70
2023-04-19T10:19:11.460Z,51.20
2023-04-19T10:21:40.916Z,50.10
2023-04-19T10:24:13.864Z,49.40
2023-04-19T10:27:08.620Z,49.00
2023-04-19T10:30:07.477Z,48.30
2023-04-19T10:32:40.396Z,48.80
2023-04-19T10:35:18.538Z,47.00
2023-04-19T10:38:08.344Z,46.50
2023-04-19T10:40:57.117Z,45.10
2023-04-19T10:43:27.172Z,45.00
2023-04-19T10:46:00.067Z,45.70
2023-04-19T10:48:44.020Z,45.30
2023-04-19T10:51:16.976Z,44.60
2023-04-19T10:53:53.542Z,43.30
2023-04-19T10:56:44.732Z,44.70
2023-04-19T10:59:24.954Z,44.30
2023-04-19T11:01:58.376Z,42.80
2023-04-19T11:05:09.787Z,42.90
2023-04-19T11:07:42.101Z,42.80
2023-04-19T11:10:12.466Z,43.40
2023-04-19T11:12:45.920Z,43.60
2023-04-19T11:15:14.203Z,43.00
2023-04-19T11:17:42.793Z,41.50
2023-04-19T11:20:13.534Z,42.60
2023-04-19T11:22:43.003Z,42.10
2023-04-19T11:25:13.285Z,41.10
2023-04-19T11:27:42.943Z,42.80
2023-04-19T11:30:14.552Z,41.80
2023-04-19T11:32:49.370Z,42.20
2023-04-19T11:35:20.935Z,41.30
2023-04-19T11:37:49.225Z,40.40
2023-04-19T11:40:17.886Z,41.10
2023-04-19T11:42:48.635Z,41.00
2023-04-19T11:45:32.278Z,39.50
2023-04-19T11:48:02.073Z,37.70
2023-04-19T11:50:38.224Z,38.90
2023-04-19T11:53:15.565Z,39.70
2023-04-19T11:55:45.380Z,40.40
2023-04-19T11:58:25.443Z,40.10
2023-04-19T12:00:55.725Z,40.30
2023-04-19T12:03:26.485Z,40.30
2023-04-19T12:05:56.770Z,37.60
2023-04-19T12:08:36.208Z,37.00
2023-04-19T12:11:05.794Z,36.70
2023-04-19T12:13:34.878Z,37.90
2023-04-19T12:16:05.172Z,36.80
2023-04-19T12:18:48.701Z,37.30
2023-04-19T12:21:27.499Z,34.10
2023-04-19T12:23:56.997Z,34.70
2023-04-19T12:26:25.657Z,33.50
2023-04-19T12:28:54.753Z,34.30
2023-04-19T12:31:24.295Z,35.70
2023-04-19T12:33:52.523Z,34.10
2023-04-19T12:36:21.600Z,34.80
2023-04-19T12:38:49.747Z,32.00
2023-04-19T12:41:17.894Z,31.90
2023-04-19T12:43:46.001Z,32.50
2023-04-19T12:46:14.171Z,33.60
2023-04-19T12:48:43.774Z,33.50
2023-04-19T12:51:11.943Z,33.60
2023-04-19T12:53:40.047Z,33.70
2023-04-19T12:56:08.213Z,33.40
2023-04-19T12:58:36.334Z,34.50
2023-04-19T13:01:04.521Z,35.30
2023-04-19T13:03:36.443Z,34.20
2023-04-19T13:06:07.020Z,34.90
2023-04-19T13:08:44.879Z,33.70
2023-04-19T13:11:15.898Z,34.50
2023-04-19T13:13:44.136Z,33.50
2023-04-19T13:16:12.266Z,34.00
2023-04-19T13:18:40.444Z,34.00
2023-04-19T13:21:09.932Z,34.20
2023-04-19T13:23:38.135Z,34.80
2023-04-19T13:26:06.448Z,33.80
2023-04-19T13:28:36.678Z,34.60
2023-04-19T13:31:05.837Z,35.40
2023-04-19T13:33:34.284Z,35.40
2023-04-19T13:36:02.405Z,33.60
2023-04-19T13:38:31.894Z,34.20
2023-04-19T13:41:00.818Z,32.70
2023-04-19T13:43:28.897Z,32.30
2023-04-19T13:45:58.317Z,32.60
2023-04-19T13:48:28.736Z,33.30
2023-04-19T13:50:57.477Z,33.20
2023-04-19T13:53:27.079Z,34.10
2023-04-19T13:55:57.014Z,33.30
2023-04-19T13:58:25.673Z,32.70
2023-04-19T14:00:54.189Z,33.50
2023-04-19T14:03:23.599Z,33.40
2023-04-19T14:05:51.909Z,33.40
2023-04-19T14:08:20.054Z,33.00
2023-04-19T14:10:48.188Z,33.30
2023-04-19T14:13:17.933Z,33.40
2023-04-19T14:15:46.480Z,32.10
2023-04-19T14:18:14.594Z,33.80
2023-04-19T14:20:42.724Z,33.80
2023-04-19T14:23:11.361Z,32.30
2023-04-19T14:25:39.448Z,33.30
2023-04-19T14:28:07.757Z,31.50
2023-04-19T14:30:37.194Z,32.40
2023-04-19T14:33:05.374Z,31.90
2023-04-19T14:35:33.763Z,33.70
2023-04-19T14:38:01.891Z,33.80
2023-04-19T14:40:29.989Z,33.30
2023-04-19T14:42:58.045Z,33.60
2023-04-19T14:45:27.410Z,33.70
2023-04-19T14:47:56.895Z,33.60
2023-04-19T14:50:25.255Z,33.80
2023-04-19T14:52:54.646Z,33.80
2023-04-19T14:55:24.888Z,32.70
2023-04-19T14:57:52.988Z,32.60
2023-04-19T15:00:21.566Z,33.20
2023-04-19T15:02:49.821Z,33.20
2023-04-19T15:05:19.832Z,33.60
2023-04-19T15:07:48.035Z,32.40
2023-04-19T15:10:16.152Z,32.20
2023-04-19T15:12:44.251Z,32.70
2023-04-19T15:15:12.903Z,32.00
2023-04-19T15:17:41.195Z,31.40
2023-04-19T15:20:10.411Z,32.80
2023-04-19T15:22:39.866Z,32.40
2023-04-19T15:25:08.274Z,33.30
2023-04-19T15:27:36.681Z,32.80
2023-04-19T15:30:05.359Z,31.60
2023-04-19T15:32:36.550Z,30.90
2023-04-19T15:35:05.123Z,31.60
2023-04-19T15:37:33.177Z,31.50
2023-04-19T15:40:02.636Z,32.40
2023-04-19T15:42:30.748Z,32.20
2023-04-19T15:44:58.813Z,32.40
2023-04-19T15:47:27.004Z,32.30
2023-04-19T15:49:55.136Z,33.30
2023-04-19T15:52:23.193Z,33.00
2023-04-19T15:54:52.078Z,32.30
2023-04-19T15:57:21.535Z,32.40
2023-04-19T15:59:49.599Z,32.90
2023-04-19T16:02:17.744Z,32.00
2023-04-19T16:04:48.372Z,32.80
2023-04-19T16:07:16.557Z,31.80
2023-04-19T16:09:44.614Z,32.40
2023-04-19T16:12:12.705Z,33.00
2023-04-19T16:14:42.154Z,32.70
2023-04-19T16:17:10.247Z,32.40
2023-04-19T16:19:38.319Z,32.20
2023-04-19T16:22:06.401Z,33.00
2023-04-19T16:24:34.465Z,33.00
2023-04-19T16:27:02.748Z,33.00
2023-04-19T16:29:31.180Z,32.70
2023-04-19T16:32:00.956Z,32.70
2023-04-19T16:34:29.075Z,32.90
2023-04-19T16:36:57.235Z,32.50
2023-04-19T16:39:25.321Z,32.50
2023-04-19T16:41:53.405Z,32.90
2023-04-19T16:44:21.744Z,33.30
2023-04-19T16:46:49.806Z,33.40
2023-04-19T16:49:20.054Z,33.30
2023-04-19T16:51:48.124Z,33.90
2023-04-19T16:54:16.217Z,34.00
2023-04-19T16:56:44.384Z,33.90
2023-04-19T16:59:12.454Z,34.10
2023-04-19T17:01:40.618Z,34.70
2023-04-19T17:04:08.876Z,34.70
2023-04-19T17:06:38.578Z,33.80
2023-04-19T17:09:07.767Z,34.00
2023-04-19T17:11:35.855Z,34.10
2023-04-19T17:14:03.912Z,34.00
2023-04-19T17:16:31.967Z,33.60
2023-04-19T17:19:00.037Z,34.00
2023-04-19T17:21:28.618Z,34.10
2023-04-19T17:23:58.079Z,34.40
2023-04-19T17:26:26.481Z,34.70
2023-04-19T17:28:54.589Z,35.00
2023-04-19T17:31:22.777Z,34.60
2023-04-19T17:33:51.020Z,35.10
2023-04-19T17:36:19.141Z,35.00
2023-04-19T17:38:47.226Z,34.80
2023-04-19T17:41:17.089Z,35.00
2023-04-19T17:43:45.579Z,35.20
2023-04-19T17:46:14.477Z,35.10
2023-04-19T17:48:42.617Z,35.30
2023-04-19T17:51:10.681Z,35.60
2023-04-19T17:53:38.750Z,35.70
2023-04-19T17:56:06.952Z,35.60
2023-04-19T17:58:36.638Z,35.80
2023-04-19T18:01:06.477Z,35.60
2023-04-19T18:03:34.875Z,36.10
2023-04-19T18:06:03.073Z,36.30
2023-04-19T18:08:31.128Z,36.00
2023-04-19T18:10:59.233Z,36.00
2023-04-19T18:13:27.622Z,36.20
2023-04-19T18:15:57.466Z,36.30
2023-04-19T18:18:25.946Z,36.50
2023-04-19T18:20:54.029Z,36.70
2023-04-19T18:23:22.178Z,36.80
2023-04-19T18:25:54.611Z,36.90
2023-04-19T18:28:22.748Z,37.00
2023-04-19T18:30:51.423Z,37.10
2023-04-19T18:33:20.912Z,37.30
2023-04-19T18:35:48.998Z,37.60
2023-04-19T18:38:17.090Z,37.90
2023-04-19T18:40:45.151Z,38.10
2023-04-19T18:43:13.366Z,38.20
2023-04-19T18:45:41.468Z,38.40
2023-04-19T18:48:09.785Z,38.50
2023-04-19T18:50:39.402Z,38.60
2023-04-19T18:53:07.490Z,38.70
2023-04-19T18:55:35.772Z,38.80
2023-04-19T18:58:04.058Z,39.00
2023-04-19T19:00:32.121Z,39.10
2023-04-19T19:03:01.914Z,39.20
2023-04-19T19:05:31.024Z,39.50
2023-04-19T19:08:01.165Z,39.60
2023-04-19T19:13:00.240Z,39.80
2023-04-19T19:15:28.470Z,40.00
2023-04-19T19:17:56.624Z,40.10
2023-04-19T19:20:24.967Z,40.30
2023-04-19T19:22:53.104Z,40.40
2023-04-19T19:25:22.908Z,40.40
2023-04-19T19:28:06.239Z,40.60
2023-04-19T19:30:39.724Z,40.70
2023-04-19T19:33:08.180Z,40.70
2023-04-19T19:35:36.405Z,40.90
2023-04-19T19:38:04.628Z,41.00
2023-04-19T19:40:34.637Z,41.60
2023-04-19T19:43:03.343Z,41.10
2023-04-19T19:45:32.337Z,41.10
2023-04-19T19:48:00.866Z,41.20
2023-04-19T19:53:01.486Z,41.40
2023-04-19T19:55:30.184Z,41.50
2023-04-19T20:00:45.035Z,41.60
2023-04-19T20:03:21.805Z,41.70
2023-04-19T20:06:03.889Z,41.80
2023-04-19T20:08:47.460Z,42.00
2023-04-19T20:11:15.598Z,42.20
2023-04-19T20:13:45.721Z,42.20
2023-04-19T20:16:14.687Z,42.30
2023-04-19T20:18:44.037Z,42.40
2023-04-19T20:21:12.117Z,42.50
2023-04-19T20:23:40.716Z,42.70
2023-04-19T20:26:09.216Z,42.80
2023-04-19T20:28:39.756Z,42.90
2023-04-19T20:31:09.187Z,43.10
2023-04-19T20:33:37.643Z,43.20
2023-04-19T20:36:06.731Z,43.40
2023-04-19T20:38:35.252Z,43.40
2023-04-19T20:41:03.394Z,43.60
2023-04-19T20:43:31.700Z,43.70
2023-04-19T20:45:59.870Z,43.90
2023-04-19T20:48:29.432Z,44.00
2023-04-19T20:50:57.715Z,44.10
2023-04-19T20:53:25.782Z,44.20
2023-04-19T20:55:53.898Z,44.10
2023-04-19T20:58:21.986Z,44.20
2023-04-19T21:00:50.782Z,44.50
2023-04-19T21:03:19.087Z,44.60
2023-04-19T21:05:48.673Z,44.50
2023-04-19T21:08:18.715Z,44.70
2023-04-19T21:10:46.784Z,44.70
2023-04-19T21:13:14.875Z,44.90
2023-04-19T21:15:43.086Z,44.90
2023-04-19T21:18:11.241Z,44.90
2023-04-19T21:20:39.460Z,44.90
2023-04-19T21:23:08.912Z,45.10
2023-04-19T21:25:37.165Z,45.30
2023-04-19T21:28:05.346Z,45.30
2023-04-19T21:30:33.574Z,45.40
2023-04-19T21:33:01.766Z,45.40
2023-04-19T21:35:29.861Z,45.30
2023-04-19T21:37:57.932Z,45.50
2023-04-19T21:40:27.516Z,45.50
2023-04-19T21:42:58.167Z,45.60
2023-04-19T21:45:26.471Z,45.70
2023-04-19T21:47:54.576Z,45.60
2023-04-19T21:50:22.901Z,45.70
2023-04-19T21:52:50.988Z,45.60
2023-04-19T21:55:19.226Z,45.60
2023-04-19T21:57:49.955Z,45.60
2023-04-19T22:00:19.097Z,45.80
2023-04-19T22:02:47.284Z,45.70
2023-04-19T22:05:16.710Z,45.60
2023-04-19T22:07:45.190Z,45.60
2023-04-19T22:10:13.733Z,45.60
2023-04-19T22:12:55.065Z,45.60
2023-04-19T22:15:27.985Z,45.70
2023-04-19T22:17:57.220Z,45.70
2023-04-19T22:20:25.957Z,45.70
2023-04-19T22:22:54.044Z,45.80
2023-04-19T22:25:22.631Z,45.80
2023-04-19T22:27:50.956Z,45.90
2023-04-19T22:30:19.015Z,46.00
2023-04-19T22:32:48.488Z,46.00
2023-04-19T22:35:16.730Z,46.10
2023-04-19T22:37:44.845Z,46.10
2023-04-19T22:40:13.915Z,46.20
2023-04-19T22:42:41.981Z,46.20
2023-04-19T22:45:11.156Z,46.20
2023-04-19T22:47:39.222Z,46.30
2023-04-19T22:50:10.011Z,46.20
2023-04-19T22:52:38.438Z,46.30
2023-04-19T22:55:07.820Z,46.30
2023-04-19T22:57:35.908Z,46.30
2023-04-19T23:00:05.718Z,46.30
2023-04-19T23:02:33.939Z,46.40
2023-04-19T23:05:04.873Z,46.30
2023-04-19T23:07:34.441Z,46.40
2023-04-19T23:10:03.084Z,46.40
2023-04-19T23:12:33.547Z,46.40
2023-04-19T23:15:02.097Z,46.50
2023-04-19T23:17:30.279Z,46.50
2023-04-19T23:19:58.388Z,46.60
2023-04-19T23:22:26.523Z,46.80
2023-04-19T23:24:56.078Z,46.90
2023-04-19T23:27:24.150Z,47.10
2023-04-19T23:29:52.248Z,47.30
2023-04-19T23:32:20.386Z,47.30
2023-04-19T23:34:48.465Z,47.30
2023-04-19T23:37:17.080Z,47.50
2023-04-19T23:39:45.234Z,47.50
2023-04-19T23:42:14.689Z,47.40
2023-04-19T23:44:43.997Z,47.50
2023-04-19T23:47:12.363Z,47.60
2023-04-19T23:49:40.466Z,47.60
2023-04-19T23:52:08.544Z,47.70
2023-04-19T23:54:36.611Z,48.20
2023-04-19T23:57:04.863Z,48.30
2023-04-19T23:59:36.308Z,48.10
